LFBY/XDA METAR and TAF weather

Enter ICAO airport designator
Station Type Date Time Source
LFBY METAR 2020/07/14 23:00 UTC NOAA

LFBY 142300Z AUTO 24003KT 9999 // ////// 16/14 Q1021


Station Type Date Time Source
LFBY Decoded METAR 2020/07/14 23:00 UTC NOAA

Dax, France (LFBY) 43-41N 001-04W 32M
Jul 14, 2020 - 07:00 PM EDT / 2020.07.14 2300 UTC
Wind: from the WSW (240 degrees) at 3 MPH (3 KT):0
Visibility: greater than 7 mile(s):0
Temperature: 60 F (16 C)
Dew Point: 57 F (14 C)
Relative Humidity: 87%
Pressure (altimeter): 30.15 in. Hg (1021 hPa)
ob: LFBY 142300Z AUTO 24003KT 9999 // ////// 16/14 Q1021
cycle: 23

Station Type Date Time Source
LFBY TAF UTC NOAA

Error!

Example: see airport list